sensor_id;sensor_type;location;lat;lon;timestamp;P1;durP1;ratioP1;P2;durP2;ratioP2
14994;SDS011;7593;49.006;8.372;2022-08-21T00:00:20;4.10;;;2.40;;
14994;SDS011;7593;49.006;8.372;2022-08-21T00:02:49;4.38;;;2.42;;
14994;SDS011;7593;49.006;8.372;2022-08-21T00:05:21;7.38;;;4.68;;
14994;SDS011;7593;49.006;8.372;2022-08-21T00:07:48;8.15;;;5.35;;
14994;SDS011;7593;49.006;8.372;2022-08-21T00:10:15;10.38;;;5.32;;
14994;SDS011;7593;49.006;8.372;2022-08-21T00:12:42;4.90;;;4.40;;
14994;SDS011;7593;49.006;8.372;2022-08-21T00:15:10;3.25;;;2.60;;
14994;SDS011;7593;49.006;8.372;2022-08-21T00:17:40;6.88;;;3.38;;
14994;SDS011;7593;49.006;8.372;2022-08-21T00:20:08;5.72;;;2.97;;
14994;SDS011;7593;49.006;8.372;2022-08-21T00:22:37;4.75;;;3.20;;
14994;SDS011;7593;49.006;8.372;2022-08-21T00:25:05;5.88;;;2.70;;
14994;SDS011;7593;49.006;8.372;2022-08-21T00:27:33;9.27;;;4.13;;
14994;SDS011;7593;49.006;8.372;2022-08-21T00:30:00;6.72;;;3.58;;
14994;SDS011;7593;49.006;8.372;2022-08-21T00:32:28;5.70;;;3.72;;
14994;SDS011;7593;49.006;8.372;2022-08-21T00:34:54;6.43;;;3.75;;
14994;SDS011;7593;49.006;8.372;2022-08-21T00:37:22;5.97;;;3.80;;
14994;SDS011;7593;49.006;8.372;2022-08-21T00:39:50;3.35;;;2.70;;
14994;SDS011;7593;49.006;8.372;2022-08-21T00:42:18;4.78;;;2.80;;
14994;SDS011;7593;49.006;8.372;2022-08-21T00:44:46;6.78;;;3.08;;
14994;SDS011;7593;49.006;8.372;2022-08-21T00:47:16;4.93;;;3.00;;
14994;SDS011;7593;49.006;8.372;2022-08-21T00:49:44;6.00;;;2.97;;
14994;SDS011;7593;49.006;8.372;2022-08-21T00:52:12;6.25;;;2.95;;
14994;SDS011;7593;49.006;8.372;2022-08-21T00:54:43;5.65;;;2.78;;
14994;SDS011;7593;49.006;8.372;2022-08-21T00:57:14;4.95;;;2.95;;
14994;SDS011;7593;49.006;8.372;2022-08-21T00:59:46;5.03;;;2.45;;
14994;SDS011;7593;49.006;8.372;2022-08-21T01:02:15;5.65;;;2.90;;
14994;SDS011;7593;49.006;8.372;2022-08-21T01:04:42;5.82;;;3.30;;
14994;SDS011;7593;49.006;8.372;2022-08-21T01:07:09;7.28;;;3.00;;
14994;SDS011;7593;49.006;8.372;2022-08-21T01:09:37;6.35;;;2.88;;
14994;SDS011;7593;49.006;8.372;2022-08-21T01:12:04;4.10;;;2.47;;
14994;SDS011;7593;49.006;8.372;2022-08-21T01:14:33;4.00;;;2.88;;
14994;SDS011;7593;49.006;8.372;2022-08-21T01:17:00;4.07;;;2.70;;
14994;SDS011;7593;49.006;8.372;2022-08-21T01:19:29;4.78;;;2.72;;
14994;SDS011;7593;49.006;8.372;2022-08-21T01:21:57;4.75;;;2.63;;
14994;SDS011;7593;49.006;8.372;2022-08-21T01:24:25;3.88;;;2.42;;
14994;SDS011;7593;49.006;8.372;2022-08-21T01:26:51;4.68;;;2.58;;
14994;SDS011;7593;49.006;8.372;2022-08-21T01:32:06;5.13;;;2.88;;
14994;SDS011;7593;49.006;8.372;2022-08-21T01:34:36;4.30;;;2.50;;
14994;SDS011;7593;49.006;8.372;2022-08-21T01:37:07;5.85;;;2.88;;
14994;SDS011;7593;49.006;8.372;2022-08-21T01:39:34;5.63;;;2.90;;
14994;SDS011;7593;49.006;8.372;2022-08-21T01:42:01;6.57;;;2.60;;
14994;SDS011;7593;49.006;8.372;2022-08-21T01:44:29;7.28;;;3.00;;
14994;SDS011;7593;49.006;8.372;2022-08-21T01:46:57;5.20;;;2.80;;
14994;SDS011;7593;49.006;8.372;2022-08-21T01:49:25;4.97;;;2.53;;
14994;SDS011;7593;49.006;8.372;2022-08-21T01:51:53;6.78;;;3.28;;
14994;SDS011;7593;49.006;8.372;2022-08-21T01:54:21;4.05;;;2.70;;
14994;SDS011;7593;49.006;8.372;2022-08-21T01:56:49;6.18;;;2.75;;
14994;SDS011;7593;49.006;8.372;2022-08-21T01:59:18;7.05;;;3.08;;
14994;SDS011;7593;49.006;8.372;2022-08-21T02:01:45;4.40;;;2.83;;
14994;SDS011;7593;49.006;8.372;2022-08-21T02:04:12;5.15;;;2.67;;
14994;SDS011;7593;49.006;8.372;2022-08-21T02:06:39;6.43;;;2.92;;
14994;SDS011;7593;49.006;8.372;2022-08-21T02:09:06;4.28;;;2.67;;
14994;SDS011;7593;49.006;8.372;2022-08-21T02:11:37;5.63;;;2.80;;
14994;SDS011;7593;49.006;8.372;2022-08-21T02:14:05;6.00;;;3.00;;
14994;SDS011;7593;49.006;8.372;2022-08-21T02:16:32;4.90;;;2.88;;
14994;SDS011;7593;49.006;8.372;2022-08-21T02:18:59;4.72;;;2.78;;
14994;SDS011;7593;49.006;8.372;2022-08-21T02:21:26;6.55;;;2.88;;
14994;SDS011;7593;49.006;8.372;2022-08-21T02:23:53;4.68;;;2.47;;
14994;SDS011;7593;49.006;8.372;2022-08-21T02:26:19;3.78;;;2.35;;
14994;SDS011;7593;49.006;8.372;2022-08-21T02:28:48;4.88;;;2.90;;
14994;SDS011;7593;49.006;8.372;2022-08-21T02:31:15;3.80;;;2.35;;
14994;SDS011;7593;49.006;8.372;2022-08-21T02:33:42;6.78;;;2.92;;
14994;SDS011;7593;49.006;8.372;2022-08-21T02:36:09;5.90;;;2.83;;
14994;SDS011;7593;49.006;8.372;2022-08-21T02:38:37;5.10;;;2.80;;
14994;SDS011;7593;49.006;8.372;2022-08-21T02:41:07;4.90;;;2.70;;
14994;SDS011;7593;49.006;8.372;2022-08-21T02:43:35;6.88;;;2.95;;
14994;SDS011;7593;49.006;8.372;2022-08-21T02:46:05;5.95;;;3.13;;
14994;SDS011;7593;49.006;8.372;2022-08-21T02:48:33;4.18;;;2.70;;
14994;SDS011;7593;49.006;8.372;2022-08-21T02:51:01;4.13;;;2.85;;
14994;SDS011;7593;49.006;8.372;2022-08-21T02:53:30;5.25;;;2.83;;
14994;SDS011;7593;49.006;8.372;2022-08-21T02:55:58;5.18;;;2.70;;
14994;SDS011;7593;49.006;8.372;2022-08-21T02:58:28;5.28;;;3.25;;
14994;SDS011;7593;49.006;8.372;2022-08-21T03:00:59;6.13;;;4.28;;
14994;SDS011;7593;49.006;8.372;2022-08-21T03:03:28;5.05;;;3.00;;
14994;SDS011;7593;49.006;8.372;2022-08-21T03:05:55;7.10;;;3.20;;
14994;SDS011;7593;49.006;8.372;2022-08-21T03:08:22;5.20;;;3.00;;
14994;SDS011;7593;49.006;8.372;2022-08-21T03:10:50;5.65;;;2.88;;
14994;SDS011;7593;49.006;8.372;2022-08-21T03:13:18;5.15;;;2.97;;
14994;SDS011;7593;49.006;8.372;2022-08-21T03:15:47;6.55;;;2.78;;
14994;SDS011;7593;49.006;8.372;2022-08-21T03:18:15;5.18;;;2.95;;
14994;SDS011;7593;49.006;8.372;2022-08-21T03:20:44;5.90;;;2.67;;
14994;SDS011;7593;49.006;8.372;2022-08-21T03:23:11;5.50;;;3.25;;
14994;SDS011;7593;49.006;8.372;2022-08-21T03:25:38;6.78;;;3.30;;
14994;SDS011;7593;49.006;8.372;2022-08-21T03:28:08;6.07;;;3.17;;
14994;SDS011;7593;49.006;8.372;2022-08-21T03:30:36;5.53;;;3.47;;
14994;SDS011;7593;49.006;8.372;2022-08-21T03:33:03;4.35;;;2.95;;
14994;SDS011;7593;49.006;8.372;2022-08-21T03:35:30;6.88;;;3.10;;
14994;SDS011;7593;49.006;8.372;2022-08-21T03:37:58;5.22;;;3.20;;
14994;SDS011;7593;49.006;8.372;2022-08-21T03:40:24;5.68;;;3.47;;
14994;SDS011;7593;49.006;8.372;2022-08-21T03:42:51;4.93;;;3.40;;
14994;SDS011;7593;49.006;8.372;2022-08-21T03:45:18;7.57;;;3.10;;
14994;SDS011;7593;49.006;8.372;2022-08-21T03:47:56;5.40;;;3.28;;
14994;SDS011;7593;49.006;8.372;2022-08-21T03:50:24;6.13;;;3.50;;
14994;SDS011;7593;49.006;8.372;2022-08-21T03:52:52;6.88;;;3.05;;
14994;SDS011;7593;49.006;8.372;2022-08-21T03:55:20;5.82;;;2.90;;
14994;SDS011;7593;49.006;8.372;2022-08-21T03:57:47;6.10;;;3.15;;
14994;SDS011;7593;49.006;8.372;2022-08-21T04:00:15;5.88;;;2.95;;
14994;SDS011;7593;49.006;8.372;2022-08-21T04:02:44;8.30;;;3.22;;
14994;SDS011;7593;49.006;8.372;2022-08-21T04:05:12;5.43;;;2.83;;
14994;SDS011;7593;49.006;8.372;2022-08-21T04:07:51;6.13;;;3.25;;
14994;SDS011;7593;49.006;8.372;2022-08-21T04:10:20;4.05;;;2.75;;
14994;SDS011;7593;49.006;8.372;2022-08-21T04:12:48;6.80;;;3.15;;
14994;SDS011;7593;49.006;8.372;2022-08-21T04:15:15;4.65;;;3.40;;
14994;SDS011;7593;49.006;8.372;2022-08-21T04:17:42;8.25;;;3.30;;
14994;SDS011;7593;49.006;8.372;2022-08-21T04:20:09;6.03;;;3.38;;
14994;SDS011;7593;49.006;8.372;2022-08-21T04:22:37;5.57;;;3.33;;
14994;SDS011;7593;49.006;8.372;2022-08-21T04:25:05;8.15;;;3.42;;
14994;SDS011;7593;49.006;8.372;2022-08-21T04:27:33;9.13;;;3.45;;
14994;SDS011;7593;49.006;8.372;2022-08-21T04:30:00;5.68;;;3.42;;
14994;SDS011;7593;49.006;8.372;2022-08-21T04:32:27;5.05;;;3.35;;
14994;SDS011;7593;49.006;8.372;2022-08-21T04:34:57;6.80;;;3.30;;
14994;SDS011;7593;49.006;8.372;2022-08-21T04:37:26;5.00;;;2.80;;
14994;SDS011;7593;49.006;8.372;2022-08-21T04:39:53;5.30;;;3.47;;
14994;SDS011;7593;49.006;8.372;2022-08-21T04:42:22;4.47;;;3.10;;
14994;SDS011;7593;49.006;8.372;2022-08-21T04:44:51;5.88;;;3.50;;
14994;SDS011;7593;49.006;8.372;2022-08-21T04:47:17;7.50;;;3.10;;
14994;SDS011;7593;49.006;8.372;2022-08-21T04:49:44;6.50;;;3.25;;
14994;SDS011;7593;49.006;8.372;2022-08-21T04:52:11;9.00;;;3.00;;
14994;SDS011;7593;49.006;8.372;2022-08-21T04:54:40;5.60;;;3.45;;
14994;SDS011;7593;49.006;8.372;2022-08-21T04:57:10;5.95;;;3.40;;
14994;SDS011;7593;49.006;8.372;2022-08-21T04:59:38;4.93;;;3.33;;
14994;SDS011;7593;49.006;8.372;2022-08-21T05:02:08;6.22;;;3.50;;
14994;SDS011;7593;49.006;8.372;2022-08-21T05:04:36;4.63;;;2.75;;
14994;SDS011;7593;49.006;8.372;2022-08-21T05:07:09;4.05;;;3.05;;
14994;SDS011;7593;49.006;8.372;2022-08-21T05:09:41;8.07;;;3.20;;
14994;SDS011;7593;49.006;8.372;2022-08-21T05:12:08;7.03;;;2.97;;
14994;SDS011;7593;49.006;8.372;2022-08-21T05:14:35;8.60;;;3.20;;
14994;SDS011;7593;49.006;8.372;2022-08-21T05:17:02;3.88;;;2.90;;
14994;SDS011;7593;49.006;8.372;2022-08-21T05:19:31;5.00;;;2.75;;
14994;SDS011;7593;49.006;8.372;2022-08-21T05:21:58;6.88;;;3.40;;
14994;SDS011;7593;49.006;8.372;2022-08-21T05:24:25;3.85;;;2.78;;
14994;SDS011;7593;49.006;8.372;2022-08-21T05:26:52;4.80;;;3.00;;
14994;SDS011;7593;49.006;8.372;2022-08-21T05:29:19;4.57;;;2.97;;
14994;SDS011;7593;49.006;8.372;2022-08-21T05:31:46;6.72;;;3.20;;
14994;SDS011;7593;49.006;8.372;2022-08-21T05:34:17;4.68;;;2.78;;
14994;SDS011;7593;49.006;8.372;2022-08-21T05:36:46;6.18;;;2.90;;
14994;SDS011;7593;49.006;8.372;2022-08-21T05:39:14;4.03;;;2.88;;
14994;SDS011;7593;49.006;8.372;2022-08-21T05:41:41;4.97;;;3.03;;
14994;SDS011;7593;49.006;8.372;2022-08-21T05:44:07;5.53;;;2.92;;
14994;SDS011;7593;49.006;8.372;2022-08-21T05:46:34;4.78;;;3.08;;
14994;SDS011;7593;49.006;8.372;2022-08-21T05:49:01;4.78;;;3.15;;
14994;SDS011;7593;49.006;8.372;2022-08-21T05:51:28;6.20;;;2.80;;
14994;SDS011;7593;49.006;8.372;2022-08-21T05:53:57;4.30;;;2.72;;
14994;SDS011;7593;49.006;8.372;2022-08-21T05:56:24;7.03;;;3.28;;
14994;SDS011;7593;49.006;8.372;2022-08-21T05:58:51;8.93;;;3.25;;
14994;SDS011;7593;49.006;8.372;2022-08-21T06:01:17;6.30;;;3.17;;
14994;SDS011;7593;49.006;8.372;2022-08-21T06:03:44;3.55;;;2.75;;
14994;SDS011;7593;49.006;8.372;2022-08-21T06:06:11;5.85;;;2.90;;
14994;SDS011;7593;49.006;8.372;2022-08-21T06:08:38;6.13;;;2.80;;
14994;SDS011;7593;49.006;8.372;2022-08-21T06:11:07;4.60;;;2.70;;
14994;SDS011;7593;49.006;8.372;2022-08-21T06:13:34;5.30;;;2.60;;
14994;SDS011;7593;49.006;8.372;2022-08-21T06:16:06;7.10;;;2.95;;
14994;SDS011;7593;49.006;8.372;2022-08-21T06:18:35;4.63;;;2.38;;
14994;SDS011;7593;49.006;8.372;2022-08-21T06:21:03;4.45;;;2.58;;
14994;SDS011;7593;49.006;8.372;2022-08-21T06:23:31;7.32;;;2.92;;
14994;SDS011;7593;49.006;8.372;2022-08-21T06:26:01;6.18;;;3.10;;
14994;SDS011;7593;49.006;8.372;2022-08-21T06:28:31;3.10;;;2.42;;
14994;SDS011;7593;49.006;8.372;2022-08-21T06:30:58;5.25;;;2.75;;
14994;SDS011;7593;49.006;8.372;2022-08-21T06:33:25;5.75;;;2.85;;
14994;SDS011;7593;49.006;8.372;2022-08-21T06:35:52;3.47;;;2.63;;
14994;SDS011;7593;49.006;8.372;2022-08-21T06:38:18;4.40;;;2.72;;
14994;SDS011;7593;49.006;8.372;2022-08-21T06:40:45;4.03;;;2.63;;
14994;SDS011;7593;49.006;8.372;2022-08-21T06:43:13;7.95;;;3.20;;
14994;SDS011;7593;49.006;8.372;2022-08-21T06:45:43;4.90;;;2.67;;
14994;SDS011;7593;49.006;8.372;2022-08-21T06:48:10;5.25;;;2.70;;
14994;SDS011;7593;49.006;8.372;2022-08-21T06:50:37;4.95;;;2.40;;
14994;SDS011;7593;49.006;8.372;2022-08-21T06:53:05;4.45;;;2.67;;
14994;SDS011;7593;49.006;8.372;2022-08-21T06:55:33;3.80;;;2.30;;
14994;SDS011;7593;49.006;8.372;2022-08-21T06:58:01;5.80;;;3.00;;
14994;SDS011;7593;49.006;8.372;2022-08-21T07:00:28;5.45;;;2.80;;
14994;SDS011;7593;49.006;8.372;2022-08-21T07:02:57;4.35;;;2.63;;
14994;SDS011;7593;49.006;8.372;2022-08-21T07:05:24;4.75;;;2.50;;
14994;SDS011;7593;49.006;8.372;2022-08-21T07:07:52;5.07;;;2.72;;
14994;SDS011;7593;49.006;8.372;2022-08-21T07:10:19;4.43;;;2.80;;
14994;SDS011;7593;49.006;8.372;2022-08-21T07:12:46;4.68;;;2.42;;
14994;SDS011;7593;49.006;8.372;2022-08-21T07:15:12;5.00;;;2.40;;
14994;SDS011;7593;49.006;8.372;2022-08-21T07:17:39;3.80;;;2.60;;
14994;SDS011;7593;49.006;8.372;2022-08-21T07:20:08;6.03;;;2.60;;
14994;SDS011;7593;49.006;8.372;2022-08-21T07:22:36;6.07;;;2.67;;
14994;SDS011;7593;49.006;8.372;2022-08-21T07:25:04;5.28;;;2.33;;
14994;SDS011;7593;49.006;8.372;2022-08-21T07:27:32;4.15;;;2.30;;
14994;SDS011;7593;49.006;8.372;2022-08-21T07:29:59;6.68;;;2.60;;
14994;SDS011;7593;49.006;8.372;2022-08-21T07:32:26;5.32;;;2.30;;
14994;SDS011;7593;49.006;8.372;2022-08-21T07:34:55;4.60;;;2.45;;
14994;SDS011;7593;49.006;8.372;2022-08-21T07:37:23;5.10;;;3.00;;
14994;SDS011;7593;49.006;8.372;2022-08-21T07:39:50;4.07;;;2.47;;
14994;SDS011;7593;49.006;8.372;2022-08-21T07:42:17;4.88;;;2.30;;
14994;SDS011;7593;49.006;8.372;2022-08-21T07:44:43;5.43;;;2.58;;
14994;SDS011;7593;49.006;8.372;2022-08-21T07:47:10;4.13;;;2.45;;
14994;SDS011;7593;49.006;8.372;2022-08-21T07:49:37;5.35;;;2.50;;
14994;SDS011;7593;49.006;8.372;2022-08-21T07:52:04;4.35;;;2.50;;
14994;SDS011;7593;49.006;8.372;2022-08-21T07:54:33;6.32;;;2.75;;
14994;SDS011;7593;49.006;8.372;2022-08-21T07:57:00;5.78;;;3.03;;
14994;SDS011;7593;49.006;8.372;2022-08-21T07:59:27;5.43;;;2.53;;
14994;SDS011;7593;49.006;8.372;2022-08-21T08:01:53;4.65;;;2.30;;
14994;SDS011;7593;49.006;8.372;2022-08-21T08:04:21;5.63;;;2.50;;
14994;SDS011;7593;49.006;8.372;2022-08-21T08:06:48;6.18;;;2.50;;
14994;SDS011;7593;49.006;8.372;2022-08-21T08:09:15;4.30;;;2.58;;
14994;SDS011;7593;49.006;8.372;2022-08-21T08:11:43;7.82;;;2.85;;
14994;SDS011;7593;49.006;8.372;2022-08-21T08:14:10;4.70;;;2.60;;
14994;SDS011;7593;49.006;8.372;2022-08-21T08:16:37;6.05;;;2.20;;
14994;SDS011;7593;49.006;8.372;2022-08-21T08:19:03;6.40;;;2.72;;
14994;SDS011;7593;49.006;8.372;2022-08-21T08:21:30;5.90;;;2.83;;
14994;SDS011;7593;49.006;8.372;2022-08-21T08:23:58;5.32;;;2.45;;
14994;SDS011;7593;49.006;8.372;2022-08-21T08:26:25;4.82;;;2.60;;
14994;SDS011;7593;49.006;8.372;2022-08-21T08:28:54;5.25;;;2.20;;
14994;SDS011;7593;49.006;8.372;2022-08-21T08:31:20;5.38;;;2.40;;
14994;SDS011;7593;49.006;8.372;2022-08-21T08:33:48;4.47;;;2.35;;
14994;SDS011;7593;49.006;8.372;2022-08-21T08:36:16;9.02;;;2.90;;
14994;SDS011;7593;49.006;8.372;2022-08-21T08:38:43;4.55;;;2.25;;
14994;SDS011;7593;49.006;8.372;2022-08-21T08:41:12;4.93;;;2.88;;
14994;SDS011;7593;49.006;8.372;2022-08-21T08:43:42;4.22;;;2.30;;
14994;SDS011;7593;49.006;8.372;2022-08-21T08:46:17;5.53;;;2.67;;
14994;SDS011;7593;49.006;8.372;2022-08-21T08:48:57;5.60;;;2.47;;
14994;SDS011;7593;49.006;8.372;2022-08-21T08:51:30;4.95;;;2.47;;
14994;SDS011;7593;49.006;8.372;2022-08-21T08:54:06;4.40;;;2.22;;
14994;SDS011;7593;49.006;8.372;2022-08-21T08:56:37;4.90;;;2.42;;
14994;SDS011;7593;49.006;8.372;2022-08-21T08:59:07;4.93;;;2.58;;
14994;SDS011;7593;49.006;8.372;2022-08-21T09:01:40;4.78;;;2.33;;
14994;SDS011;7593;49.006;8.372;2022-08-21T09:04:08;5.78;;;2.60;;
14994;SDS011;7593;49.006;8.372;2022-08-21T09:06:41;7.30;;;2.67;;
14994;SDS011;7593;49.006;8.372;2022-08-21T09:09:22;3.85;;;2.25;;
14994;SDS011;7593;49.006;8.372;2022-08-21T09:11:57;7.28;;;3.00;;
14994;SDS011;7593;49.006;8.372;2022-08-21T09:14:31;6.78;;;2.45;;
14994;SDS011;7593;49.006;8.372;2022-08-21T09:17:12;5.45;;;2.65;;
14994;SDS011;7593;49.006;8.372;2022-08-21T09:19:52;6.28;;;2.88;;
14994;SDS011;7593;49.006;8.372;2022-08-21T09:22:29;3.28;;;2.17;;
14994;SDS011;7593;49.006;8.372;2022-08-21T09:25:07;6.18;;;2.20;;
14994;SDS011;7593;49.006;8.372;2022-08-21T09:27:45;5.13;;;2.75;;
14994;SDS011;7593;49.006;8.372;2022-08-21T09:30:13;7.70;;;2.55;;
14994;SDS011;7593;49.006;8.372;2022-08-21T09:32:42;4.57;;;2.35;;
14994;SDS011;7593;49.006;8.372;2022-08-21T09:35:09;7.32;;;3.00;;
14994;SDS011;7593;49.006;8.372;2022-08-21T09:37:46;6.93;;;2.67;;
14994;SDS011;7593;49.006;8.372;2022-08-21T09:40:19;5.10;;;2.70;;
14994;SDS011;7593;49.006;8.372;2022-08-21T09:42:56;6.53;;;2.50;;
14994;SDS011;7593;49.006;8.372;2022-08-21T09:45:24;5.20;;;2.70;;
14994;SDS011;7593;49.006;8.372;2022-08-21T09:47:52;3.88;;;2.63;;
14994;SDS011;7593;49.006;8.372;2022-08-21T09:50:21;5.28;;;2.60;;
14994;SDS011;7593;49.006;8.372;2022-08-21T09:52:51;3.83;;;2.58;;
14994;SDS011;7593;49.006;8.372;2022-08-21T09:55:23;4.90;;;3.00;;
14994;SDS011;7593;49.006;8.372;2022-08-21T09:58:15;5.53;;;2.70;;
14994;SDS011;7593;49.006;8.372;2022-08-21T10:00:43;5.40;;;2.50;;
14994;SDS011;7593;49.006;8.372;2022-08-21T10:03:13;5.25;;;2.60;;
14994;SDS011;7593;49.006;8.372;2022-08-21T10:05:50;4.93;;;2.72;;
14994;SDS011;7593;49.006;8.372;2022-08-21T10:08:20;6.68;;;2.83;;
14994;SDS011;7593;49.006;8.372;2022-08-21T10:10:50;7.40;;;2.70;;
14994;SDS011;7593;49.006;8.372;2022-08-21T10:13:21;3.88;;;2.78;;
14994;SDS011;7593;49.006;8.372;2022-08-21T10:15:56;6.47;;;2.97;;
14994;SDS011;7593;49.006;8.372;2022-08-21T10:18:37;3.63;;;2.42;;
14994;SDS011;7593;49.006;8.372;2022-08-21T10:21:09;5.95;;;2.53;;
14994;SDS011;7593;49.006;8.372;2022-08-21T10:23:46;5.25;;;2.75;;
14994;SDS011;7593;49.006;8.372;2022-08-21T10:26:25;5.82;;;2.70;;
14994;SDS011;7593;49.006;8.372;2022-08-21T10:29:03;6.63;;;2.50;;
14994;SDS011;7593;49.006;8.372;2022-08-21T10:31:39;13.18;;;3.78;;
14994;SDS011;7593;49.006;8.372;2022-08-21T10:34:18;3.67;;;2.58;;
14994;SDS011;7593;49.006;8.372;2022-08-21T10:37:01;4.75;;;2.67;;
14994;SDS011;7593;49.006;8.372;2022-08-21T10:39:34;6.32;;;2.50;;
14994;SDS011;7593;49.006;8.372;2022-08-21T10:42:09;3.10;;;2.15;;
14994;SDS011;7593;49.006;8.372;2022-08-21T10:44:49;4.78;;;2.10;;
14994;SDS011;7593;49.006;8.372;2022-08-21T10:47:28;3.75;;;2.38;;
14994;SDS011;7593;49.006;8.372;2022-08-21T10:50:03;4.03;;;2.30;;
14994;SDS011;7593;49.006;8.372;2022-08-21T10:52:42;4.10;;;2.10;;
14994;SDS011;7593;49.006;8.372;2022-08-21T10:55:18;4.53;;;2.00;;
14994;SDS011;7593;49.006;8.372;2022-08-21T10:57:49;3.03;;;1.92;;
14994;SDS011;7593;49.006;8.372;2022-08-21T11:00:21;4.43;;;2.30;;
14994;SDS011;7593;49.006;8.372;2022-08-21T11:02:51;4.07;;;2.13;;
14994;SDS011;7593;49.006;8.372;2022-08-21T11:05:24;3.78;;;1.80;;
14994;SDS011;7593;49.006;8.372;2022-08-21T11:07:55;2.55;;;1.77;;
14994;SDS011;7593;49.006;8.372;2022-08-21T11:10:28;4.57;;;2.13;;
14994;SDS011;7593;49.006;8.372;2022-08-21T11:13:04;3.70;;;2.00;;
14994;SDS011;7593;49.006;8.372;2022-08-21T11:15:39;3.55;;;1.80;;
14994;SDS011;7593;49.006;8.372;2022-08-21T11:18:21;3.05;;;1.77;;
14994;SDS011;7593;49.006;8.372;2022-08-21T11:20:56;2.50;;;1.52;;
14994;SDS011;7593;49.006;8.372;2022-08-21T11:23:29;2.85;;;1.75;;
14994;SDS011;7593;49.006;8.372;2022-08-21T11:26:04;3.00;;;1.80;;
14994;SDS011;7593;49.006;8.372;2022-08-21T11:28:35;3.47;;;2.17;;
14994;SDS011;7593;49.006;8.372;2022-08-21T11:31:10;5.72;;;2.17;;
14994;SDS011;7593;49.006;8.372;2022-08-21T11:33:50;5.13;;;2.05;;
14994;SDS011;7593;49.006;8.372;2022-08-21T11:36:32;3.15;;;1.98;;
14994;SDS011;7593;49.006;8.372;2022-08-21T11:39:06;3.17;;;1.73;;
14994;SDS011;7593;49.006;8.372;2022-08-21T11:41:43;5.45;;;2.10;;
14994;SDS011;7593;49.006;8.372;2022-08-21T11:44:18;4.75;;;1.80;;
14994;SDS011;7593;49.006;8.372;2022-08-21T11:47:09;4.32;;;2.00;;
14994;SDS011;7593;49.006;8.372;2022-08-21T11:49:47;3.45;;;1.90;;
14994;SDS011;7593;49.006;8.372;2022-08-21T11:52:25;3.45;;;2.05;;
14994;SDS011;7593;49.006;8.372;2022-08-21T11:54:57;3.13;;;1.70;;
14994;SDS011;7593;49.006;8.372;2022-08-21T11:57:30;4.55;;;2.03;;
14994;SDS011;7593;49.006;8.372;2022-08-21T12:00:03;3.08;;;2.00;;
14994;SDS011;7593;49.006;8.372;2022-08-21T12:02:35;2.65;;;1.73;;
14994;SDS011;7593;49.006;8.372;2022-08-21T12:05:22;3.40;;;2.05;;
14994;SDS011;7593;49.006;8.372;2022-08-21T12:08:02;5.35;;;1.88;;
14994;SDS011;7593;49.006;8.372;2022-08-21T12:10:33;3.85;;;2.20;;
14994;SDS011;7593;49.006;8.372;2022-08-21T12:13:06;3.40;;;1.80;;
14994;SDS011;7593;49.006;8.372;2022-08-21T12:15:36;3.35;;;1.80;;
14994;SDS011;7593;49.006;8.372;2022-08-21T12:18:04;4.43;;;1.88;;
14994;SDS011;7593;49.006;8.372;2022-08-21T12:20:34;3.35;;;2.03;;
14994;SDS011;7593;49.006;8.372;2022-08-21T12:23:05;4.53;;;2.00;;
14994;SDS011;7593;49.006;8.372;2022-08-21T12:25:43;4.55;;;2.05;;
14994;SDS011;7593;49.006;8.372;2022-08-21T12:28:14;2.65;;;1.80;;
14994;SDS011;7593;49.006;8.372;2022-08-21T12:30:47;7.28;;;1.90;;
14994;SDS011;7593;49.006;8.372;2022-08-21T12:33:19;3.85;;;2.05;;
14994;SDS011;7593;49.006;8.372;2022-08-21T12:35:50;5.45;;;2.20;;
14994;SDS011;7593;49.006;8.372;2022-08-21T12:38:20;3.08;;;1.75;;
14994;SDS011;7593;49.006;8.372;2022-08-21T12:40:53;5.60;;;2.10;;
14994;SDS011;7593;49.006;8.372;2022-08-21T12:43:24;2.75;;;1.90;;
14994;SDS011;7593;49.006;8.372;2022-08-21T12:45:55;3.88;;;1.92;;
14994;SDS011;7593;49.006;8.372;2022-08-21T12:48:25;3.67;;;1.88;;
14994;SDS011;7593;49.006;8.372;2022-08-21T12:50:56;5.82;;;2.03;;
14994;SDS011;7593;49.006;8.372;2022-08-21T12:53:33;3.97;;;1.88;;
14994;SDS011;7593;49.006;8.372;2022-08-21T12:56:12;3.22;;;1.95;;
14994;SDS011;7593;49.006;8.372;2022-08-21T12:58:44;5.40;;;2.53;;
14994;SDS011;7593;49.006;8.372;2022-08-21T13:01:14;3.88;;;1.90;;
14994;SDS011;7593;49.006;8.372;2022-08-21T13:03:48;2.65;;;1.85;;
14994;SDS011;7593;49.006;8.372;2022-08-21T13:06:16;3.67;;;2.10;;
14994;SDS011;7593;49.006;8.372;2022-08-21T13:08:47;2.97;;;1.85;;
14994;SDS011;7593;49.006;8.372;2022-08-21T13:11:18;2.67;;;1.90;;
14994;SDS011;7593;49.006;8.372;2022-08-21T13:13:48;3.92;;;2.00;;
14994;SDS011;7593;49.006;8.372;2022-08-21T13:16:18;3.50;;;1.90;;
14994;SDS011;7593;49.006;8.372;2022-08-21T13:18:52;3.10;;;2.10;;
14994;SDS011;7593;49.006;8.372;2022-08-21T13:21:21;3.53;;;1.90;;
14994;SDS011;7593;49.006;8.372;2022-08-21T13:23:54;3.35;;;1.60;;
14994;SDS011;7593;49.006;8.372;2022-08-21T13:26:21;3.92;;;2.00;;
14994;SDS011;7593;49.006;8.372;2022-08-21T13:28:48;5.55;;;2.25;;
14994;SDS011;7593;49.006;8.372;2022-08-21T13:31:17;2.85;;;1.85;;
14994;SDS011;7593;49.006;8.372;2022-08-21T13:33:46;3.00;;;2.00;;
14994;SDS011;7593;49.006;8.372;2022-08-21T13:36:17;3.58;;;1.80;;
14994;SDS011;7593;49.006;8.372;2022-08-21T13:38:46;3.30;;;1.88;;
14994;SDS011;7593;49.006;8.372;2022-08-21T13:41:19;3.08;;;2.10;;
14994;SDS011;7593;49.006;8.372;2022-08-21T13:43:49;2.50;;;1.85;;
14994;SDS011;7593;49.006;8.372;2022-08-21T13:46:23;4.97;;;2.13;;
14994;SDS011;7593;49.006;8.372;2022-08-21T13:48:52;5.63;;;2.20;;
14994;SDS011;7593;49.006;8.372;2022-08-21T13:51:20;3.45;;;2.25;;
14994;SDS011;7593;49.006;8.372;2022-08-21T13:53:49;4.18;;;2.20;;
14994;SDS011;7593;49.006;8.372;2022-08-21T13:56:25;4.95;;;1.92;;
14994;SDS011;7593;49.006;8.372;2022-08-21T13:58:54;4.03;;;2.17;;
14994;SDS011;7593;49.006;8.372;2022-08-21T14:01:23;3.00;;;2.00;;
14994;SDS011;7593;49.006;8.372;2022-08-21T14:03:54;4.30;;;1.90;;
14994;SDS011;7593;49.006;8.372;2022-08-21T14:06:24;3.40;;;2.03;;
14994;SDS011;7593;49.006;8.372;2022-08-21T14:08:53;2.30;;;1.90;;
14994;SDS011;7593;49.006;8.372;2022-08-21T14:11:22;5.35;;;2.22;;
14994;SDS011;7593;49.006;8.372;2022-08-21T14:13:56;3.50;;;1.98;;
14994;SDS011;7593;49.006;8.372;2022-08-21T14:16:25;3.60;;;1.90;;
14994;SDS011;7593;49.006;8.372;2022-08-21T14:19:07;2.85;;;2.20;;
14994;SDS011;7593;49.006;8.372;2022-08-21T14:21:36;2.83;;;2.05;;
14994;SDS011;7593;49.006;8.372;2022-08-21T14:24:07;4.40;;;2.08;;
14994;SDS011;7593;49.006;8.372;2022-08-21T14:26:37;2.45;;;1.80;;
14994;SDS011;7593;49.006;8.372;2022-08-21T14:29:11;3.85;;;2.10;;
14994;SDS011;7593;49.006;8.372;2022-08-21T14:31:40;5.30;;;1.95;;
14994;SDS011;7593;49.006;8.372;2022-08-21T14:34:07;3.10;;;1.92;;
14994;SDS011;7593;49.006;8.372;2022-08-21T14:36:37;3.67;;;1.70;;
14994;SDS011;7593;49.006;8.372;2022-08-21T14:39:04;2.95;;;2.25;;
14994;SDS011;7593;49.006;8.372;2022-08-21T14:41:30;3.45;;;2.20;;
14994;SDS011;7593;49.006;8.372;2022-08-21T14:43:59;2.65;;;1.95;;
14994;SDS011;7593;49.006;8.372;2022-08-21T14:46:26;3.15;;;2.00;;
14994;SDS011;7593;49.006;8.372;2022-08-21T14:48:55;2.33;;;1.90;;
14994;SDS011;7593;49.006;8.372;2022-08-21T14:51:22;3.15;;;1.95;;
14994;SDS011;7593;49.006;8.372;2022-08-21T14:53:49;4.20;;;1.85;;
14994;SDS011;7593;49.006;8.372;2022-08-21T14:56:17;3.40;;;2.00;;
14994;SDS011;7593;49.006;8.372;2022-08-21T14:58:45;2.30;;;1.90;;
14994;SDS011;7593;49.006;8.372;2022-08-21T15:01:16;3.13;;;2.13;;
14994;SDS011;7593;49.006;8.372;2022-08-21T15:03:45;2.67;;;2.03;;
14994;SDS011;7593;49.006;8.372;2022-08-21T15:06:13;4.60;;;2.13;;
14994;SDS011;7593;49.006;8.372;2022-08-21T15:08:41;2.95;;;2.03;;
14994;SDS011;7593;49.006;8.372;2022-08-21T15:11:08;3.40;;;1.83;;
14994;SDS011;7593;49.006;8.372;2022-08-21T15:13:40;5.10;;;2.20;;
14994;SDS011;7593;49.006;8.372;2022-08-21T15:16:07;4.65;;;2.30;;
14994;SDS011;7593;49.006;8.372;2022-08-21T15:18:37;3.70;;;1.80;;